createdAt,value
2019-02-27T00:01:56.321Z,9.20
2019-02-27T00:04:23.979Z,9.50
2019-02-27T00:06:51.533Z,9.70
2019-02-27T00:09:20.463Z,9.77
2019-02-27T00:11:48.021Z,8.50
2019-02-27T00:14:15.739Z,8.57
2019-02-27T00:16:44.742Z,8.63
2019-02-27T00:19:13.139Z,9.10
2019-02-27T00:21:40.874Z,9.40
2019-02-27T00:24:10.185Z,9.23
2019-02-27T00:26:39.505Z,9.97
2019-02-27T00:29:07.100Z,9.97
2019-02-27T00:31:34.668Z,9.73
2019-02-27T00:34:02.487Z,9.40
2019-02-27T00:36:30.078Z,9.37
2019-02-27T00:38:58.474Z,10.00
2019-02-27T00:41:28.075Z,10.43
2019-02-27T00:43:55.673Z,10.23
2019-02-27T00:46:23.277Z,9.90
2019-02-27T00:48:54.020Z,9.73
2019-02-27T00:51:21.533Z,9.67
2019-02-27T00:53:49.289Z,10.23
2019-02-27T00:56:16.958Z,10.47
2019-02-27T00:58:44.573Z,11.73
2019-02-27T01:01:12.590Z,11.57
2019-02-27T01:03:40.879Z,11.60
2019-02-27T01:06:08.416Z,13.40
2019-02-27T01:08:37.278Z,12.43
2019-02-27T01:11:04.784Z,12.20
2019-02-27T01:13:32.371Z,11.50
2019-02-27T01:15:59.927Z,11.60
2019-02-27T01:18:30.385Z,11.67
2019-02-27T01:20:56.805Z,12.60
2019-02-27T01:23:24.388Z,12.23
2019-02-27T01:25:56.069Z,12.50
2019-02-27T01:28:24.924Z,12.83
2019-02-27T01:30:52.645Z,13.17
2019-02-27T01:33:20.236Z,12.97
2019-02-27T01:35:51.338Z,12.60
2019-02-27T01:38:17.154Z,13.07
2019-02-27T01:40:44.797Z,13.03
2019-02-27T01:43:12.334Z,12.70
2019-02-27T01:45:39.842Z,13.10
2019-02-27T01:48:09.185Z,13.90
2019-02-27T01:50:37.409Z,12.67
2019-02-27T01:53:07.377Z,13.50
2019-02-27T01:55:35.732Z,12.70
2019-02-27T01:58:03.420Z,11.87
2019-02-27T02:00:31.095Z,12.70
2019-02-27T02:02:58.684Z,13.00
2019-02-27T02:05:27.445Z,12.37
2019-02-27T02:07:58.401Z,13.33
2019-02-27T02:10:28.302Z,12.77
2019-02-27T02:13:22.612Z,12.47
2019-02-27T02:16:34.126Z,13.43
2019-02-27T02:19:42.375Z,12.90
2019-02-27T02:22:54.842Z,12.43
2019-02-27T02:25:44.488Z,12.63
2019-02-27T02:28:51.001Z,12.20
2019-02-27T02:31:41.609Z,12.73
2019-02-27T02:34:51.423Z,11.87
2019-02-27T02:37:50.589Z,12.60
2019-02-27T02:40:45.279Z,12.67
2019-02-27T02:43:44.512Z,12.17
2019-02-27T02:46:20.202Z,11.87
2019-02-27T02:49:13.403Z,12.90
2019-02-27T02:51:55.160Z,12.90
2019-02-27T02:54:54.360Z,12.43
2019-02-27T02:57:47.494Z,11.73
2019-02-27T03:01:05.061Z,12.10
2019-02-27T03:03:48.129Z,11.47
2019-02-27T03:06:45.034Z,11.87
2019-02-27T03:09:45.005Z,11.57
2019-02-27T03:12:58.817Z,11.73
2019-02-27T03:16:05.921Z,12.43
2019-02-27T03:19:17.489Z,11.63
2019-02-27T03:22:21.177Z,12.40
2019-02-27T03:25:40.133Z,11.53
2019-02-27T03:28:41.935Z,12.13
2019-02-27T03:31:37.330Z,11.50
2019-02-27T03:34:50.197Z,11.93
2019-02-27T03:37:49.485Z,12.73
2019-02-27T03:40:45.101Z,11.87
2019-02-27T03:43:46.051Z,12.27
2019-02-27T03:46:40.442Z,11.67
2019-02-27T03:49:51.588Z,12.27
2019-02-27T03:52:48.559Z,12.97
2019-02-27T03:55:49.607Z,12.30
2019-02-27T03:59:07.936Z,12.03
2019-02-27T04:02:17.048Z,12.97
2019-02-27T04:05:32.036Z,12.47
2019-02-27T04:08:49.209Z,11.73
2019-02-27T04:11:16.813Z,11.20
2019-02-27T04:13:44.391Z,11.53
2019-02-27T04:16:11.924Z,11.37
2019-02-27T04:18:45.370Z,12.60
2019-02-27T04:21:13.128Z,11.53
2019-02-27T04:23:40.700Z,11.63
2019-02-27T04:26:08.371Z,12.00
2019-02-27T04:28:35.910Z,12.00
2019-02-27T04:31:03.451Z,12.07
2019-02-27T04:33:31.026Z,11.70
2019-02-27T04:35:58.523Z,12.13
2019-02-27T04:38:34.393Z,11.47
2019-02-27T04:41:03.008Z,12.63
2019-02-27T04:43:32.262Z,11.83
2019-02-27T04:45:59.880Z,12.63
2019-02-27T04:48:30.020Z,12.40
2019-02-27T04:50:56.779Z,11.67
2019-02-27T04:53:24.304Z,12.23
2019-02-27T04:55:51.847Z,12.17
2019-02-27T04:58:20.534Z,11.77
2019-02-27T05:00:48.119Z,12.03
2019-02-27T05:03:15.657Z,12.97
2019-02-27T05:05:43.193Z,12.60
2019-02-27T05:08:11.758Z,12.10
2019-02-27T05:10:40.549Z,13.83
2019-02-27T05:13:08.694Z,12.33
2019-02-27T05:15:38.885Z,11.90
2019-02-27T05:18:11.899Z,12.63
2019-02-27T05:20:46.901Z,12.77
2019-02-27T05:23:14.502Z,12.00
2019-02-27T05:25:42.074Z,12.27
2019-02-27T05:28:09.602Z,12.67
2019-02-27T05:30:37.187Z,11.03
2019-02-27T05:33:06.786Z,11.37
2019-02-27T05:35:34.327Z,11.70
2019-02-27T05:38:09.428Z,12.03
2019-02-27T05:40:37.153Z,11.30
2019-02-27T05:43:04.864Z,11.83
2019-02-27T05:45:32.458Z,12.27
2019-02-27T05:48:02.204Z,11.63
2019-02-27T05:50:33.956Z,12.40
2019-02-27T05:52:59.107Z,11.33
2019-02-27T05:55:33.099Z,11.90
2019-02-27T05:58:09.794Z,12.93
2019-02-27T06:00:35.938Z,12.80
2019-02-27T06:03:07.463Z,12.20
2019-02-27T06:05:36.014Z,11.77
2019-02-27T06:08:08.761Z,11.43
2019-02-27T06:10:59.156Z,12.10
2019-02-27T06:13:30.056Z,11.33
2019-02-27T06:16:02.557Z,11.47
2019-02-27T06:18:30.056Z,11.30
2019-02-27T06:21:02.393Z,11.27
2019-02-27T06:23:38.509Z,11.30
2019-02-27T06:26:06.439Z,11.87
2019-02-27T06:28:39.098Z,11.17
2019-02-27T06:31:06.693Z,10.67
2019-02-27T06:33:34.328Z,11.07
2019-02-27T06:36:05.327Z,11.73
2019-02-27T06:38:44.493Z,11.20
2019-02-27T06:41:15.359Z,11.80
2019-02-27T06:43:41.540Z,12.57
2019-02-27T06:46:09.105Z,12.60
2019-02-27T06:48:36.686Z,12.13
2019-02-27T06:51:04.223Z,12.00
2019-02-27T06:53:32.113Z,11.40
2019-02-27T06:56:03.451Z,12.27
2019-02-27T06:58:36.888Z,12.87
2019-02-27T07:01:07.026Z,11.83
2019-02-27T07:03:33.862Z,12.30
2019-02-27T07:06:01.397Z,11.03
2019-02-27T07:08:28.992Z,12.40
2019-02-27T07:10:58.951Z,12.30
2019-02-27T07:13:26.754Z,12.30
2019-02-27T07:15:55.707Z,11.97
2019-02-27T07:18:23.413Z,12.37
2019-02-27T07:20:50.941Z,12.47
2019-02-27T07:23:22.639Z,12.00
2019-02-27T07:25:47.893Z,12.27
2019-02-27T07:28:22.659Z,12.00
2019-02-27T07:30:50.278Z,12.43
2019-02-27T07:33:17.885Z,12.23
2019-02-27T07:35:45.411Z,12.77
2019-02-27T07:38:21.426Z,12.67
2019-02-27T07:40:46.837Z,12.90
2019-02-27T07:43:14.462Z,12.60
2019-02-27T07:45:42.796Z,12.17
2019-02-27T07:48:11.268Z,12.30
2019-02-27T07:50:38.915Z,12.37
2019-02-27T07:53:06.541Z,13.23
2019-02-27T07:55:34.078Z,13.20
2019-02-27T07:58:01.692Z,13.53
2019-02-27T08:00:29.232Z,13.60
2019-02-27T08:02:56.794Z,12.90
2019-02-27T08:05:27.895Z,13.03
2019-02-27T08:07:53.712Z,13.97
2019-02-27T08:10:21.272Z,13.90
2019-02-27T08:12:55.500Z,13.53
2019-02-27T08:15:20.944Z,13.23
2019-02-27T08:17:49.532Z,13.03
2019-02-27T08:20:20.200Z,12.10
2019-02-27T08:22:46.470Z,14.03
2019-02-27T08:25:14.146Z,12.03
2019-02-27T08:27:47.233Z,12.30
2019-02-27T08:30:17.252Z,11.97
2019-02-27T08:32:44.832Z,11.70
2019-02-27T08:35:12.476Z,12.03
2019-02-27T08:37:40.035Z,11.83
2019-02-27T08:40:07.776Z,11.30
2019-02-27T08:42:37.372Z,10.17
2019-02-27T08:45:05.118Z,10.57
2019-02-27T08:47:33.669Z,10.13
2019-02-27T08:50:01.418Z,9.23
2019-02-27T08:52:28.932Z,10.03
2019-02-27T08:54:56.482Z,8.87
2019-02-27T08:57:27.081Z,8.47
2019-02-27T08:59:54.649Z,8.47
2019-02-27T09:02:24.156Z,8.23
2019-02-27T09:04:51.546Z,8.13
2019-02-27T09:07:20.155Z,8.33
2019-02-27T09:09:51.178Z,8.30
2019-02-27T09:12:17.050Z,8.87
2019-02-27T09:14:44.632Z,8.40
2019-02-27T09:17:12.167Z,8.10
2019-02-27T09:19:44.964Z,8.00
2019-02-27T09:22:09.118Z,10.10
2019-02-27T09:24:38.024Z,8.57
2019-02-27T09:27:05.556Z,7.63
2019-02-27T09:29:33.183Z,8.27
2019-02-27T09:32:00.739Z,8.37
2019-02-27T09:34:28.341Z,8.07
2019-02-27T09:36:55.865Z,7.40
2019-02-27T09:39:23.436Z,6.40
2019-02-27T09:41:55.711Z,7.50
2019-02-27T09:44:23.239Z,7.33
2019-02-27T09:46:52.380Z,7.23
2019-02-27T09:49:20.087Z,6.47
2019-02-27T09:51:48.197Z,6.97
2019-02-27T09:54:15.780Z,6.93
2019-02-27T09:56:43.325Z,6.97
2019-02-27T09:59:10.852Z,6.90
2019-02-27T10:01:38.720Z,6.93
2019-02-27T10:04:06.295Z,6.93
2019-02-27T10:06:33.872Z,7.13
2019-02-27T10:09:01.429Z,7.33
2019-02-27T10:11:29.014Z,6.77
2019-02-27T10:13:56.665Z,7.33
2019-02-27T10:16:24.197Z,7.57
2019-02-27T10:18:54.840Z,6.97
2019-02-27T10:21:21.245Z,7.10
2019-02-27T10:23:48.793Z,7.83
2019-02-27T10:26:16.676Z,8.50
2019-02-27T10:29:06.895Z,8.03
2019-02-27T10:31:34.578Z,8.37
2019-02-27T10:34:02.164Z,8.60
2019-02-27T10:36:29.770Z,8.93
2019-02-27T10:39:02.116Z,8.30
2019-02-27T10:41:30.333Z,9.20
2019-02-27T10:43:57.853Z,9.70
2019-02-27T10:46:25.776Z,10.77
2019-02-27T10:48:53.329Z,10.60
2019-02-27T10:51:21.060Z,10.17
2019-02-27T10:53:50.340Z,9.77
2019-02-27T10:56:18.041Z,10.10
2019-02-27T10:58:48.227Z,10.33
2019-02-27T11:01:15.833Z,9.53
2019-02-27T11:03:43.448Z,10.43
2019-02-27T11:06:11.011Z,10.33
2019-02-27T11:08:42.149Z,10.70
2019-02-27T11:11:09.720Z,10.97
2019-02-27T11:13:37.227Z,10.57
2019-02-27T11:16:04.815Z,11.03
2019-02-27T11:18:33.367Z,10.80
2019-02-27T11:21:00.943Z,11.50
2019-02-27T11:23:28.483Z,11.07
2019-02-27T11:25:56.960Z,11.50
2019-02-27T11:28:25.246Z,10.30
2019-02-27T11:30:52.805Z,10.70
2019-02-27T11:33:25.718Z,10.87
2019-02-27T11:35:49.871Z,11.37
2019-02-27T11:38:17.452Z,11.33
2019-02-27T11:40:44.960Z,11.07
2019-02-27T11:43:12.793Z,11.70
2019-02-27T11:45:40.370Z,11.97
2019-02-27T11:48:25.395Z,10.77
2019-02-27T11:50:53.018Z,11.17
2019-02-27T11:53:21.731Z,10.20
2019-02-27T11:55:49.335Z,10.57
2019-02-27T11:58:38.503Z,10.50
2019-02-27T12:01:06.033Z,10.80
2019-02-27T12:03:35.478Z,10.90
2019-02-27T12:06:05.322Z,10.70
2019-02-27T12:08:35.603Z,11.20
2019-02-27T12:11:05.907Z,11.27
2019-02-27T12:13:36.102Z,11.00
2019-02-27T12:16:07.022Z,10.57
2019-02-27T12:18:35.206Z,10.70
2019-02-27T12:21:05.146Z,10.50
2019-02-27T12:23:33.051Z,11.17
2019-02-27T12:26:02.459Z,10.37
2019-02-27T12:28:34.756Z,10.47
2019-02-27T12:31:02.514Z,10.17
2019-02-27T12:33:30.124Z,10.87
2019-02-27T12:36:01.202Z,10.83
2019-02-27T12:38:31.801Z,10.70
2019-02-27T12:41:03.696Z,10.47
2019-02-27T12:43:38.189Z,10.73
2019-02-27T12:46:10.885Z,11.13
2019-02-27T12:48:38.587Z,10.90
2019-02-27T12:51:06.221Z,10.90
2019-02-27T12:53:33.800Z,11.07
2019-02-27T12:56:01.705Z,11.13
2019-02-27T12:58:32.794Z,10.37
2019-02-27T13:01:00.676Z,11.33
2019-02-27T13:03:30.522Z,11.37
2019-02-27T13:06:00.757Z,11.83
2019-02-27T13:08:27.579Z,11.23
2019-02-27T13:10:55.080Z,11.17
2019-02-27T13:13:23.284Z,10.80
2019-02-27T13:15:54.081Z,11.30
2019-02-27T13:18:22.663Z,11.53
2019-02-27T13:20:50.137Z,11.90
2019-02-27T13:23:18.076Z,12.10
2019-02-27T13:25:45.589Z,12.10
2019-02-27T13:28:16.195Z,11.80
2019-02-27T13:30:43.771Z,11.93
2019-02-27T13:33:11.517Z,11.30
2019-02-27T13:35:39.068Z,12.57
2019-02-27T13:38:11.019Z,10.97
2019-02-27T13:40:38.520Z,11.67
2019-02-27T13:43:06.080Z,12.67
2019-02-27T13:45:33.639Z,12.37
2019-02-27T13:48:05.852Z,12.30
2019-02-27T13:50:32.804Z,12.40
2019-02-27T13:53:00.368Z,11.87
2019-02-27T13:55:28.201Z,12.73
2019-02-27T13:57:58.802Z,12.53
2019-02-27T14:00:27.158Z,12.90
2019-02-27T14:02:57.658Z,13.27
2019-02-27T14:05:29.311Z,13.03
2019-02-27T14:07:58.463Z,13.37
2019-02-27T14:10:33.885Z,12.83
2019-02-27T14:13:01.724Z,13.47
2019-02-27T14:15:31.257Z,12.83
2019-02-27T14:17:58.911Z,13.13
2019-02-27T14:20:28.979Z,14.30
2019-02-27T14:23:00.960Z,13.07
2019-02-27T14:25:35.021Z,13.57
2019-02-27T14:31:13.117Z,13.53
2019-02-27T14:33:44.252Z,13.53
2019-02-27T14:36:11.878Z,12.80
2019-02-27T14:38:42.935Z,13.63
2019-02-27T14:41:16.505Z,13.53
2019-02-27T14:43:44.150Z,14.40
2019-02-27T14:46:17.926Z,13.90
2019-02-27T14:48:47.942Z,14.77
2019-02-27T14:51:15.586Z,14.70
2019-02-27T14:53:43.156Z,14.67
2019-02-27T14:56:17.833Z,14.60
2019-02-27T14:59:03.790Z,13.90
2019-02-27T15:01:33.894Z,14.07
2019-02-27T15:04:10.304Z,14.73
2019-02-27T15:06:46.676Z,13.73
2019-02-27T15:09:20.582Z,13.90
2019-02-27T15:11:48.878Z,14.23
2019-02-27T15:14:26.081Z,13.93
2019-02-27T15:16:59.982Z,14.10
2019-02-27T15:19:35.439Z,13.93
2019-02-27T15:22:08.214Z,13.20
2019-02-27T15:24:35.896Z,13.93
2019-02-27T15:27:14.537Z,14.10
2019-02-27T15:29:44.806Z,13.60
2019-02-27T15:32:16.530Z,13.70
2019-02-27T15:34:49.822Z,13.60
2019-02-27T15:37:21.122Z,13.73
2019-02-27T15:39:54.982Z,14.70
2019-02-27T15:42:22.491Z,13.93
2019-02-27T15:44:53.256Z,14.00
2019-02-27T15:47:30.313Z,14.40
2019-02-27T15:50:34.249Z,14.03
2019-02-27T15:53:23.041Z,12.87
2019-02-27T15:56:09.288Z,14.50
2019-02-27T15:58:41.638Z,14.90
2019-02-27T16:01:53.054Z,14.27
2019-02-27T16:04:25.196Z,14.17
2019-02-27T16:06:57.765Z,14.83
2019-02-27T16:10:08.065Z,14.83
2019-02-27T16:12:35.199Z,14.60
2019-02-27T16:15:09.636Z,13.80
2019-02-27T16:17:37.299Z,14.97
2019-02-27T16:20:17.945Z,14.10
2019-02-27T16:22:47.950Z,15.57
2019-02-27T16:25:33.358Z,14.23
2019-02-27T16:28:02.287Z,14.10
2019-02-27T16:30:32.323Z,14.83
2019-02-27T16:33:00.157Z,14.10
2019-02-27T16:35:27.824Z,14.90
2019-02-27T16:38:14.052Z,14.10
2019-02-27T16:40:41.728Z,14.27
2019-02-27T16:43:13.457Z,14.20
2019-02-27T16:45:42.071Z,14.30
2019-02-27T16:48:11.332Z,15.13
2019-02-27T16:50:45.542Z,16.57
2019-02-27T16:53:18.452Z,16.23
2019-02-27T16:55:50.650Z,15.67
2019-02-27T16:58:32.658Z,15.77
2019-02-27T17:01:00.777Z,15.77
2019-02-27T17:03:36.305Z,15.57
2019-02-27T17:06:09.406Z,14.43
2019-02-27T17:08:44.667Z,13.93
2019-02-27T17:11:32.489Z,15.30
2019-02-27T17:14:05.744Z,15.10
2019-02-27T17:16:45.489Z,15.73
2019-02-27T17:19:21.611Z,13.63
2019-02-27T17:21:49.776Z,14.90
2019-02-27T17:24:20.946Z,14.53
2019-02-27T17:26:55.605Z,14.50
2019-02-27T17:29:27.082Z,14.43
2019-02-27T17:31:59.583Z,14.70
2019-02-27T17:34:31.994Z,14.43
2019-02-27T17:37:07.234Z,13.83
2019-02-27T17:39:37.305Z,13.17
2019-02-27T17:42:18.544Z,14.13
2019-02-27T17:44:48.716Z,13.60
2019-02-27T17:47:21.658Z,13.40
2019-02-27T17:49:49.332Z,13.90
2019-02-27T17:52:19.519Z,14.50
2019-02-27T17:54:52.440Z,13.63
2019-02-27T17:57:31.038Z,13.63
2019-02-27T18:00:04.120Z,13.83
2019-02-27T18:02:33.225Z,14.53
2019-02-27T18:05:28.669Z,15.83
2019-02-27T18:08:01.075Z,13.40
2019-02-27T18:10:31.088Z,15.07
2019-02-27T18:12:58.843Z,14.47
2019-02-27T18:15:28.202Z,14.57
2019-02-27T18:18:10.608Z,14.03
2019-02-27T18:20:41.301Z,14.33
2019-02-27T18:23:09.103Z,15.43
2019-02-27T18:25:42.040Z,15.57
2019-02-27T18:28:12.677Z,14.57
2019-02-27T18:30:42.632Z,14.47
2019-02-27T18:33:14.291Z,15.53
2019-02-27T18:35:48.195Z,14.43
2019-02-27T18:38:21.127Z,14.23
2019-02-27T18:40:51.558Z,14.63
2019-02-27T18:43:22.082Z,13.93
2019-02-27T18:45:56.974Z,14.70
2019-02-27T18:48:44.433Z,15.13
2019-02-27T18:51:15.170Z,14.93
2019-02-27T18:53:48.304Z,15.10
2019-02-27T18:56:17.112Z,15.57
2019-02-27T18:58:44.819Z,16.10
2019-02-27T19:01:13.121Z,16.60
2019-02-27T19:03:40.915Z,17.53
2019-02-27T19:06:17.131Z,17.77
2019-02-27T19:08:47.118Z,17.73
2019-02-27T19:11:22.304Z,19.03
2019-02-27T19:13:50.433Z,18.33
2019-02-27T19:16:21.566Z,18.23
2019-02-27T19:18:58.230Z,18.10
2019-02-27T19:21:32.764Z,18.47
2019-02-27T19:23:57.604Z,17.53
2019-02-27T19:26:44.322Z,18.13
2019-02-27T19:29:18.034Z,17.67
2019-02-27T19:31:45.549Z,17.60
2019-02-27T19:34:18.503Z,17.73
2019-02-27T19:36:46.189Z,18.87
2019-02-27T19:39:13.925Z,15.93
2019-02-27T19:41:50.890Z,17.87
2019-02-27T19:44:20.389Z,17.93
2019-02-27T19:47:11.618Z,17.67
2019-02-27T19:49:57.180Z,17.37
2019-02-27T19:52:26.948Z,17.53
2019-02-27T19:54:54.797Z,17.80
2019-02-27T19:57:42.317Z,17.37
2019-02-27T20:00:20.251Z,17.13
2019-02-27T20:02:47.931Z,17.70
2019-02-27T20:05:19.130Z,17.43
2019-02-27T20:07:51.775Z,18.40
2019-02-27T20:10:22.907Z,17.13
2019-02-27T20:12:53.872Z,18.00
2019-02-27T20:15:23.378Z,19.13
2019-02-27T20:17:56.024Z,19.13
2019-02-27T20:20:24.581Z,17.30
2019-02-27T20:22:56.589Z,17.80
2019-02-27T20:25:33.207Z,18.37
2019-02-27T20:28:02.939Z,18.37
2019-02-27T20:30:33.415Z,18.20
2019-02-27T20:33:02.579Z,18.73
2019-02-27T20:35:30.929Z,17.90
2019-02-27T20:38:07.629Z,18.87
2019-02-27T20:40:37.502Z,20.10
2019-02-27T20:43:08.140Z,19.23
2019-02-27T20:45:40.025Z,17.23
2019-02-27T20:48:26.058Z,18.70
2019-02-27T20:50:55.257Z,18.60
2019-02-27T20:53:23.515Z,21.90
2019-02-27T20:55:51.303Z,21.97
2019-02-27T20:58:24.281Z,23.67
2019-02-27T21:00:53.628Z,26.30
2019-02-27T21:03:26.692Z,25.60
2019-02-27T21:05:52.532Z,24.43
2019-02-27T21:08:22.875Z,24.37
2019-02-27T21:10:54.888Z,23.73
2019-02-27T21:13:21.918Z,23.73
2019-02-27T21:15:52.584Z,23.77
2019-02-27T21:18:20.295Z,23.03
2019-02-27T21:20:47.910Z,23.47
2019-02-27T21:23:15.518Z,22.10
2019-02-27T21:25:48.649Z,22.07
2019-02-27T21:28:21.267Z,22.43
2019-02-27T21:30:51.830Z,23.80
2019-02-27T21:33:19.546Z,23.70
2019-02-27T21:35:48.979Z,22.10
2019-02-27T21:38:25.836Z,22.20
2019-02-27T21:40:53.507Z,25.03
2019-02-27T21:43:25.391Z,24.00
2019-02-27T21:45:50.522Z,24.10
2019-02-27T21:48:39.084Z,24.13
2019-02-27T21:51:10.989Z,23.73
2019-02-27T21:53:42.264Z,24.73
2019-02-27T21:56:18.083Z,25.40
2019-02-27T21:58:50.189Z,23.03
2019-02-27T22:01:19.373Z,22.67
2019-02-27T22:03:49.908Z,22.70
2019-02-27T22:06:17.508Z,21.47
2019-02-27T22:08:51.811Z,21.47
2019-02-27T22:11:24.193Z,21.43
2019-02-27T22:13:52.269Z,21.10
2019-02-27T22:16:19.927Z,21.47
2019-02-27T22:18:59.952Z,21.70
2019-02-27T22:21:34.852Z,21.60
2019-02-27T22:24:05.268Z,19.87
2019-02-27T22:26:34.255Z,18.87
2019-02-27T22:29:02.261Z,20.57
2019-02-27T22:31:40.272Z,19.80
2019-02-27T22:34:10.449Z,20.73
2019-02-27T22:36:38.060Z,21.30
2019-02-27T22:39:07.109Z,20.73
2019-02-27T22:41:34.853Z,20.50
2019-02-27T22:44:02.579Z,20.47
2019-02-27T22:46:33.875Z,20.73
2019-02-27T22:49:11.927Z,22.37
2019-02-27T22:51:39.917Z,21.27
2019-02-27T22:54:17.623Z,20.03
2019-02-27T22:56:51.555Z,19.37
2019-02-27T22:59:20.066Z,21.77
2019-02-27T23:01:50.994Z,21.33
2019-02-27T23:04:18.816Z,21.10
2019-02-27T23:07:04.839Z,20.60
2019-02-27T23:09:37.737Z,20.17
2019-02-27T23:12:12.376Z,19.87
2019-02-27T23:14:43.112Z,21.10
2019-02-27T23:17:13.965Z,20.73
2019-02-27T23:19:46.094Z,19.90
2019-02-27T23:22:11.380Z,20.07
2019-02-27T23:24:43.888Z,19.17
2019-02-27T23:27:15.374Z,19.50
2019-02-27T23:29:44.788Z,19.73
2019-02-27T23:32:13.293Z,19.70
2019-02-27T23:34:43.642Z,19.23
2019-02-27T23:37:18.975Z,19.97
2019-02-27T23:39:48.083Z,20.13
2019-02-27T23:42:18.519Z,21.00
2019-02-27T23:44:50.949Z,20.13
2019-02-27T23:47:23.792Z,20.27
2019-02-27T23:49:55.371Z,18.60
2019-02-27T23:52:27.307Z,19.23
2019-02-27T23:54:54.857Z,19.10
2019-02-27T23:57:28.545Z,19.40
2019-02-27T23:59:56.096Z,20.33
